Terminal Aerodrome Forecast
Issued by NWS

Home | Current Version | Previous Version | Text Only | Print | Product List | Glossary Off
Versions: 1 2 3 4 5 6 7 8 9 10 11 12 13 14 15 16 17 18 19 20 21 22 23 24 25 26 27 28 29

350
FTUS44 KLZK 150828 AAA
TAFLIT
TAF AMD
KLIT 150828Z 1508/1606 09004KT P6SM VCSH BKN040 OVC100
      TEMPO 1509/1512 5SM -TSRA BR SCT020 OVC040CB
     FM151200 11005KT 5SM -SHRA BR SCT025 OVC050
     FM151500 18007KT P6SM VCSH BKN050 OVC080=

USA.gov is the U.S. government's official web portal to all federal, state and local government web resources and services.